Flight Track Log - Related Links

Times and Time Zones

All times are in EDT time to prevent confusion due to time zone crossing. See the XOJ549 flight status page for this flight to view local times or setup timezone preferences in your user account.

Time Position Orientation Groundspeed Altitude Reporting Facility
EDT Latitude Longitude Course Direction KTS MPH feet Rate Location/Type
Mon 12:53:30 PM 40.8333 -74.1000 252° West 171 197 1,500  Level New York TRACON
Mon 12:54:35 PM 40.8167 -74.1667 252° West 204 235 2,300 1,650 Climbing New York TRACON
Mon 12:55:30 PM 40.8000 -74.2333 252° West 244 281 4,800 2,452 Climbing New York TRACON
Mon 12:56:30 PM 40.7667 -74.3333 246° West 263 303 7,000 1,100 Climbing New York TRACON
Mon 12:57:30 PM 40.7333 -74.4167 242° Southwest 266 306 7,000 100 Level New York TRACON
Mon 12:58:30 PM 40.7167 -74.5000 255° West 264 304 7,200 500 Climbing New York TRACON
Mon 12:59:30 PM 40.6833 -74.6000 246° West 262 302 8,000 227 Climbing New York TRACON
Mon 01:01:00 PM 40.5980 -74.6975 221° Southwest  Level FlightAware Approximate
Mon 01:02:01 PM 40.6500 -74.8333 221° Southwest 260 299 8,000  Level Philadelphia TRACON
Mon 01:02:37 PM 40.6333 -74.8833 246° West 258 297 8,000  Level Philadelphia TRACON
Mon 01:03:37 PM 40.6167 -74.9833 258° West 261 300 8,000  Level Philadelphia TRACON
Mon 01:04:43 PM 40.6000 -75.0833 258° West 264 304 8,000  Level Philadelphia TRACON
Mon 01:05:43 PM 40.5667 -75.1667 242° Southwest 263 303 8,000 -474 Level Philadelphia TRACON
Mon 01:06:37 PM 40.5500 -75.2500 255° West 265 305 7,100 -556 Descending Philadelphia TRACON
Mon 01:07:31 PM 40.5333 -75.3333 255° West 272 313 7,000 -50 Descending Philadelphia TRACON
Mon 01:08:37 PM 40.4500 -75.3167 171° South 278 320 7,000  Level Philadelphia TRACON
Mon 01:09:37 PM 40.3667 -75.3000 171° South 271 312 7,000 -50 Level Philadelphia TRACON
Mon 01:10:37 PM 40.2833 -75.2833 171° South 284 327 6,900 -500 Descending Philadelphia TRACON
Mon 01:11:37 PM 40.2167 -75.2667 169° South 279 321 6,000 -789 Descending Philadelphia TRACON
Mon 01:12:31 PM 40.1500 -75.2500 169° South 269 310 5,400 -1,000 Descending Philadelphia TRACON
Mon 01:13:31 PM 40.0833 -75.2333 169° South 265 305 4,100 -700 Descending Philadelphia TRACON
Mon 01:14:31 PM 40.0167 -75.2000 159° South 208 239 4,000 -53 Descending Philadelphia TRACON
Mon 01:15:25 PM 39.9667 -75.1833 166° South 197 227 4,000  Level Philadelphia TRACON
Mon 01:16:31 PM 39.9000 -75.1500 159° South 203 234 4,000 -762 Level Philadelphia TRACON
Mon 01:17:31 PM 39.8500 -75.1333 166° South 206 237 2,400 -1,240 Descending Philadelphia TRACON
Mon 01:18:32 PM 39.8167 -75.1667 218° Southwest 166 191 1,500 -619 Descending Philadelphia TRACON
Mon 01:19:37 PM 39.8333 -75.2000 303° West 148 170 1,100 -369 Descending Philadelphia TRACON
Mon 01:22:00 PM 39.8667 -75.2333 142° Southeast  Level FlightAware Approximate
Mon 01:29:00 PM 39.8722 -75.2409 142° Southeast  Level Estimated

Login

Don't have an account? Register now (free) for customized features, flight alerts, and more!